YRSRG EDTM-EDMA
Flight info
| Callsign | YRSRG |
|---|---|
| Flight time | 0h 31m |
| Altitude | 9000 |
| Route | LEBSO4W LEBSO DCT UTABA DCT PELOG Z714 LUPOL DCT LURER DCT RIDAR Z98 WLD |
| Aircraft | TBM9/L-SDFGRWY/S |
Departure
| Time | 2026-05-07 11:26 |
|---|---|
| Airport | Mengen-Hohentengen Airfield (EDTM) |
Arrival
| Time | 2026-05-07 11:57 |
|---|---|
| Airport | Augsburg Airport (EDMA) |
| Time | Latitude | Longitude | Altitude | Speed | Heading |
|---|---|---|---|---|---|
| 2026-05-07 10:56 | 48.05473 | 9.36555 | 1814 ft | 0 kts | 351° |
| 2026-05-07 11:19 | 48.05486 | 9.36552 | 1814 ft | 3 kts | 351° |
| 2026-05-07 11:20 | 48.05503 | 9.36581 | 1814 ft | 5 kts | 81° |
| 2026-05-07 11:20 | 48.05510 | 9.36640 | 1814 ft | 6 kts | 80° |
| 2026-05-07 11:20 | 48.05517 | 9.36711 | 1813 ft | 8 kts | 81° |
| 2026-05-07 11:20 | 48.05527 | 9.36805 | 1811 ft | 10 kts | 81° |
| 2026-05-07 11:21 | 48.05538 | 9.36910 | 1811 ft | 10 kts | 82° |
| 2026-05-07 11:21 | 48.05548 | 9.37011 | 1811 ft | 9 kts | 81° |
| 2026-05-07 11:21 | 48.05560 | 9.37122 | 1808 ft | 11 kts | 80° |
| 2026-05-07 11:21 | 48.05557 | 9.37244 | 1808 ft | 11 kts | 107° |
| 2026-05-07 11:22 | 48.05529 | 9.37349 | 1808 ft | 10 kts | 79° |
| 2026-05-07 11:22 | 48.05547 | 9.37456 | 1807 ft | 10 kts | 77° |
| 2026-05-07 11:22 | 48.05553 | 9.37561 | 1807 ft | 9 kts | 103° |
| 2026-05-07 11:22 | 48.05519 | 9.37648 | 1807 ft | 9 kts | 136° |
| 2026-05-07 11:23 | 48.05467 | 9.37697 | 1808 ft | 8 kts | 117° |
| 2026-05-07 11:23 | 48.05476 | 9.37786 | 1807 ft | 8 kts | 76° |
| 2026-05-07 11:23 | 48.05491 | 9.37875 | 1807 ft | 8 kts | 76° |
| 2026-05-07 11:23 | 48.05505 | 9.37965 | 1808 ft | 8 kts | 76° |
| 2026-05-07 11:24 | 48.05519 | 9.38054 | 1807 ft | 8 kts | 76° |
| 2026-05-07 11:24 | 48.05526 | 9.38144 | 1808 ft | 8 kts | 99° |
| 2026-05-07 11:24 | 48.05542 | 9.38200 | 1807 ft | 4 kts | 300° |
| 2026-05-07 11:24 | 48.05537 | 9.38170 | 1807 ft | 0 kts | 257° |
| 2026-05-07 11:25 | 48.05528 | 9.38111 | 1808 ft | 33 kts | 256° |
| 2026-05-07 11:25 | 48.05406 | 9.37373 | 1845 ft | 100 kts | 257° |
| 2026-05-07 11:26 | 48.05251 | 9.36322 | 2219 ft | 110 kts | 258° |
| 2026-05-07 11:26 | 48.05067 | 9.35115 | 2606 ft | 129 kts | 253° |
| 2026-05-07 11:26 | 48.04830 | 9.33799 | 3141 ft | 137 kts | 254° |
| 2026-05-07 11:26 | 48.04600 | 9.32440 | 3773 ft | 137 kts | 254° |
| 2026-05-07 11:27 | 48.04364 | 9.31073 | 4346 ft | 139 kts | 257° |
| 2026-05-07 11:27 | 48.04152 | 9.29689 | 4974 ft | 137 kts | 256° |
| 2026-05-07 11:27 | 48.03935 | 9.28281 | 5357 ft | 148 kts | 256° |
| 2026-05-07 11:27 | 48.03684 | 9.26707 | 5616 ft | 161 kts | 257° |
| 2026-05-07 11:28 | 48.03416 | 9.25034 | 5911 ft | 169 kts | 259° |
| 2026-05-07 11:28 | 48.03559 | 9.23316 | 6252 ft | 174 kts | 295° |
| 2026-05-07 11:28 | 48.04346 | 9.21912 | 6681 ft | 179 kts | 309° |
| 2026-05-07 11:28 | 48.05254 | 9.20675 | 7198 ft | 176 kts | 315° |
| 2026-05-07 11:29 | 48.06183 | 9.19548 | 7692 ft | 175 kts | 324° |
| 2026-05-07 11:29 | 48.07402 | 9.19252 | 8115 ft | 185 kts | 352° |
| 2026-05-07 11:29 | 48.08694 | 9.19280 | 8515 ft | 187 kts | 353° |
| 2026-05-07 11:29 | 48.09987 | 9.19309 | 8926 ft | 188 kts | 352° |
| 2026-05-07 11:30 | 48.11334 | 9.19329 | 9051 ft | 202 kts | 352° |
| 2026-05-07 11:30 | 48.12798 | 9.19353 | 9054 ft | 217 kts | 353° |
| 2026-05-07 11:30 | 48.14346 | 9.19383 | 9048 ft | 227 kts | 353° |
| 2026-05-07 11:30 | 48.15939 | 9.19416 | 9041 ft | 232 kts | 354° |
| 2026-05-07 11:31 | 48.17587 | 9.19451 | 9031 ft | 237 kts | 353° |
| 2026-05-07 11:31 | 48.19243 | 9.19479 | 9036 ft | 239 kts | 354° |
| 2026-05-07 11:31 | 48.20890 | 9.19515 | 9029 ft | 240 kts | 354° |
| 2026-05-07 11:31 | 48.22559 | 9.19551 | 9026 ft | 242 kts | 354° |
| 2026-05-07 11:32 | 48.25905 | 9.20097 | 8986 ft | 257 kts | 22° |
| 2026-05-07 11:32 | 48.27113 | 9.22124 | 9002 ft | 271 kts | 59° |
| 2026-05-07 11:32 | 48.27353 | 9.24954 | 9001 ft | 280 kts | 97° |
| 2026-05-07 11:33 | 48.26656 | 9.27670 | 9037 ft | 279 kts | 116° |
| 2026-05-07 11:33 | 48.25790 | 9.30294 | 9032 ft | 280 kts | 116° |
| 2026-05-07 11:33 | 48.25045 | 9.32978 | 9011 ft | 280 kts | 98° |
| 2026-05-07 11:33 | 48.25090 | 9.35844 | 9043 ft | 276 kts | 82° |
| 2026-05-07 11:34 | 48.25234 | 9.38745 | 9035 ft | 277 kts | 85° |
| 2026-05-07 11:34 | 48.25333 | 9.41609 | 9035 ft | 278 kts | 84° |
| 2026-05-07 11:34 | 48.25445 | 9.44511 | 9033 ft | 278 kts | 85° |
| 2026-05-07 11:34 | 48.25427 | 9.47399 | 9011 ft | 280 kts | 99° |
| 2026-05-07 11:35 | 48.25008 | 9.50276 | 9039 ft | 279 kts | 101° |
| 2026-05-07 11:35 | 48.24627 | 9.53092 | 9036 ft | 279 kts | 99° |
| 2026-05-07 11:35 | 48.24271 | 9.55992 | 9035 ft | 280 kts | 101° |
| 2026-05-07 11:35 | 48.23898 | 9.58854 | 9037 ft | 280 kts | 99° |
| 2026-05-07 11:36 | 48.23542 | 9.61704 | 9036 ft | 280 kts | 101° |
| 2026-05-07 11:36 | 48.23181 | 9.64580 | 9036 ft | 280 kts | 101° |
| 2026-05-07 11:36 | 48.22813 | 9.67450 | 9030 ft | 280 kts | 101° |
| 2026-05-07 11:36 | 48.22670 | 9.70362 | 9029 ft | 280 kts | 93° |
| 2026-05-07 11:37 | 48.22671 | 9.73268 | 9012 ft | 281 kts | 80° |
| 2026-05-07 11:37 | 48.23451 | 9.75909 | 9035 ft | 276 kts | 58° |
| 2026-05-07 11:37 | 48.24386 | 9.78410 | 9026 ft | 277 kts | 58° |
| 2026-05-07 11:37 | 48.25303 | 9.80959 | 9021 ft | 278 kts | 59° |
| 2026-05-07 11:38 | 48.26212 | 9.83549 | 9019 ft | 278 kts | 60° |
| 2026-05-07 11:38 | 48.27099 | 9.86112 | 9019 ft | 279 kts | 60° |
| 2026-05-07 11:38 | 48.27990 | 9.88709 | 9019 ft | 279 kts | 60° |
| 2026-05-07 11:38 | 48.28878 | 9.91296 | 9019 ft | 279 kts | 60° |
| 2026-05-07 11:39 | 48.29764 | 9.93884 | 9019 ft | 279 kts | 60° |
| 2026-05-07 11:39 | 48.30650 | 9.96472 | 9019 ft | 280 kts | 60° |
| 2026-05-07 11:39 | 48.31536 | 9.99066 | 9020 ft | 280 kts | 60° |
| 2026-05-07 11:39 | 48.32426 | 10.01675 | 9020 ft | 280 kts | 60° |
| 2026-05-07 11:40 | 48.33316 | 10.04282 | 9020 ft | 280 kts | 60° |
| 2026-05-07 11:40 | 48.34200 | 10.06878 | 9020 ft | 280 kts | 60° |
| 2026-05-07 11:40 | 48.35083 | 10.09472 | 9020 ft | 280 kts | 60° |
| 2026-05-07 11:40 | 48.35970 | 10.12081 | 9020 ft | 280 kts | 60° |
| 2026-05-07 11:41 | 48.36850 | 10.14671 | 9020 ft | 280 kts | 60° |
| 2026-05-07 11:41 | 48.37735 | 10.17279 | 9020 ft | 280 kts | 60° |
| 2026-05-07 11:41 | 48.38628 | 10.19915 | 9021 ft | 279 kts | 60° |
| 2026-05-07 11:41 | 48.39504 | 10.22501 | 8818 ft | 282 kts | 60° |
| 2026-05-07 11:42 | 48.40402 | 10.25151 | 8533 ft | 285 kts | 61° |
| 2026-05-07 11:42 | 48.41305 | 10.27826 | 8286 ft | 286 kts | 61° |
| 2026-05-07 11:42 | 48.42207 | 10.30495 | 8041 ft | 286 kts | 61° |
| 2026-05-07 11:42 | 48.43101 | 10.33148 | 7796 ft | 286 kts | 61° |
| 2026-05-07 11:43 | 48.44004 | 10.35830 | 7549 ft | 286 kts | 61° |
| 2026-05-07 11:43 | 48.44896 | 10.38483 | 7303 ft | 285 kts | 61° |
| 2026-05-07 11:43 | 48.45795 | 10.41157 | 7055 ft | 285 kts | 61° |
| 2026-05-07 11:43 | 48.46685 | 10.43806 | 6809 ft | 284 kts | 61° |
| 2026-05-07 11:44 | 48.47580 | 10.46475 | 6561 ft | 283 kts | 60° |
| 2026-05-07 11:44 | 48.48460 | 10.49103 | 6315 ft | 282 kts | 60° |
| 2026-05-07 11:44 | 48.49347 | 10.51752 | 6067 ft | 281 kts | 60° |
| 2026-05-07 11:44 | 48.50226 | 10.54381 | 5821 ft | 280 kts | 60° |
| 2026-05-07 11:45 | 48.51100 | 10.56996 | 5575 ft | 279 kts | 60° |
| 2026-05-07 11:45 | 48.51967 | 10.59588 | 5330 ft | 279 kts | 60° |
| 2026-05-07 11:45 | 48.52837 | 10.62199 | 5084 ft | 278 kts | 60° |
| 2026-05-07 11:45 | 48.53692 | 10.64766 | 4992 ft | 272 kts | 60° |
| 2026-05-07 11:46 | 48.54532 | 10.67290 | 4988 ft | 265 kts | 61° |
| 2026-05-07 11:46 | 48.55352 | 10.69759 | 4988 ft | 261 kts | 61° |
| 2026-05-07 11:46 | 48.56160 | 10.72191 | 4989 ft | 259 kts | 61° |
| 2026-05-07 11:46 | 48.56968 | 10.74627 | 4990 ft | 257 kts | 61° |
| 2026-05-07 11:47 | 48.57761 | 10.77018 | 4991 ft | 256 kts | 61° |
| 2026-05-07 11:47 | 48.58564 | 10.79439 | 4991 ft | 256 kts | 61° |
| 2026-05-07 11:47 | 48.58962 | 10.82045 | 4957 ft | 259 kts | 94° |
| 2026-05-07 11:47 | 48.58765 | 10.84716 | 5000 ft | 257 kts | 94° |
| 2026-05-07 11:48 | 48.58659 | 10.87415 | 4994 ft | 257 kts | 92° |
| 2026-05-07 11:48 | 48.58581 | 10.90109 | 4993 ft | 257 kts | 92° |
| 2026-05-07 11:48 | 48.58508 | 10.92786 | 4992 ft | 256 kts | 92° |
| 2026-05-07 11:48 | 48.58434 | 10.95498 | 4992 ft | 256 kts | 92° |
| 2026-05-07 11:49 | 48.58361 | 10.98146 | 4992 ft | 255 kts | 92° |
| 2026-05-07 11:49 | 48.58286 | 11.00839 | 4992 ft | 255 kts | 93° |
| 2026-05-07 11:49 | 48.58212 | 11.03501 | 4993 ft | 254 kts | 93° |
| 2026-05-07 11:49 | 48.58136 | 11.06172 | 4992 ft | 254 kts | 93° |
| 2026-05-07 11:50 | 48.58060 | 11.08837 | 4992 ft | 253 kts | 93° |
| 2026-05-07 11:50 | 48.57782 | 11.11427 | 4957 ft | 251 kts | 116° |
| 2026-05-07 11:50 | 48.56591 | 11.13222 | 4960 ft | 240 kts | 156° |
| 2026-05-07 11:50 | 48.55007 | 11.13882 | 4758 ft | 234 kts | 172° |
| 2026-05-07 11:51 | 48.53443 | 11.14331 | 4507 ft | 226 kts | 172° |
| 2026-05-07 11:51 | 48.51942 | 11.14780 | 4245 ft | 213 kts | 172° |
| 2026-05-07 11:51 | 48.50567 | 11.15201 | 4001 ft | 193 kts | 172° |
| 2026-05-07 11:51 | 48.49301 | 11.15587 | 3970 ft | 178 kts | 172° |
| 2026-05-07 11:52 | 48.48135 | 11.15561 | 3949 ft | 163 kts | 209° |
| 2026-05-07 11:52 | 48.47340 | 11.14472 | 3988 ft | 150 kts | 234° |
| 2026-05-07 11:52 | 48.46845 | 11.13099 | 3988 ft | 150 kts | 253° |
| 2026-05-07 11:52 | 48.46597 | 11.11597 | 3991 ft | 148 kts | 257° |
| 2026-05-07 11:53 | 48.46309 | 11.10112 | 3992 ft | 148 kts | 251° |
| 2026-05-07 11:53 | 48.45967 | 11.08698 | 3929 ft | 134 kts | 252° |
| 2026-05-07 11:53 | 48.45699 | 11.07455 | 3705 ft | 121 kts | 253° |
| 2026-05-07 11:53 | 48.45438 | 11.06283 | 3478 ft | 113 kts | 253° |
| 2026-05-07 11:54 | 48.45199 | 11.05205 | 3300 ft | 106 kts | 253° |
| 2026-05-07 11:54 | 48.44970 | 11.04175 | 3156 ft | 98 kts | 253° |
| 2026-05-07 11:54 | 48.44774 | 11.03288 | 3055 ft | 84 kts | 254° |
| 2026-05-07 11:54 | 48.44591 | 11.02465 | 2888 ft | 82 kts | 254° |
| 2026-05-07 11:55 | 48.44413 | 11.01665 | 2757 ft | 79 kts | 255° |
| 2026-05-07 11:55 | 48.44237 | 11.00888 | 2634 ft | 78 kts | 255° |
| 2026-05-07 11:55 | 48.44068 | 11.00108 | 2522 ft | 78 kts | 255° |
| 2026-05-07 11:55 | 48.43891 | 10.99323 | 2405 ft | 79 kts | 253° |
| 2026-05-07 11:56 | 48.43716 | 10.98531 | 2283 ft | 81 kts | 256° |
| 2026-05-07 11:56 | 48.43537 | 10.97727 | 2165 ft | 82 kts | 254° |
| 2026-05-07 11:56 | 48.43352 | 10.96909 | 2025 ft | 83 kts | 255° |
| 2026-05-07 11:56 | 48.43171 | 10.96084 | 1894 ft | 82 kts | 253° |
| 2026-05-07 11:57 | 48.42989 | 10.95273 | 1769 ft | 81 kts | 254° |
| 2026-05-07 11:57 | 48.42811 | 10.94465 | 1620 ft | 81 kts | 255° |
| 2026-05-07 11:57 | 48.42641 | 10.93703 | 1518 ft | 66 kts | 251° |
| 2026-05-07 11:57 | 48.42521 | 10.93168 | 1518 ft | 40 kts | 251° |
| 2026-05-07 11:58 | 48.42450 | 10.92849 | 1518 ft | 25 kts | 252° |
| 2026-05-07 11:58 | 48.42402 | 10.92637 | 1518 ft | 18 kts | 251° |
| 2026-05-07 11:58 | 48.42365 | 10.92471 | 1518 ft | 15 kts | 251° |
| 2026-05-07 11:58 | 48.42323 | 10.92373 | 1518 ft | 9 kts | 168° |
| 2026-05-07 11:59 | 48.42268 | 10.92400 | 1518 ft | 6 kts | 161° |
| 2026-05-07 11:59 | 48.42232 | 10.92419 | 1518 ft | 4 kts | 161° |
| 2026-05-07 11:59 | 48.42200 | 10.92435 | 1518 ft | 5 kts | 161° |
| 2026-05-07 11:59 | 48.42157 | 10.92457 | 1518 ft | 7 kts | 162° |
| 2026-05-07 12:00 | 48.42107 | 10.92469 | 1518 ft | 6 kts | 196° |
| 2026-05-07 12:00 | 48.42071 | 10.92472 | 1518 ft | 4 kts | 161° |
| 2026-05-07 12:00 | 48.42046 | 10.92485 | 1518 ft | 3 kts | 161° |
| 2026-05-07 12:00 | 48.42030 | 10.92493 | 1518 ft | 1 kts | 147° |
| 2026-05-07 12:01 | 48.42033 | 10.92510 | 1518 ft | 2 kts | 4° |
| 2026-05-07 12:01 | 48.42039 | 10.92507 | 1518 ft | 0 kts | 341° |